To NAV CANADA Home Page Login to a new session Search on AWWS site Disclaimer Vers la page française équivalente Tips FAQ What's new on the site To the Forecasts and Observations / NOTAM section To "File a Flight Plan" website Publications and other links Update of the User's profile FIC Telephone Numbers My Weather Data Folder Route Weather Data Regional Weather Data Local Weather Data To the Forecasts and Observations / NOTAM section
Request Generated 06/14/2021 at 17:48:46 UTC . Weather information available at that time is displayed.


Go to a specific product

Save this request - Inactive

METAR/TAF

OTTAWA/MACDONALD-CARTIER INTL/ON    

METAR CYOW 141700Z 16006KT 110V220 15SM BKN023TCU BKN120 23/17 A2969 RMK TCU5AC2 SLP056 DENSITY ALT 1700FT=
METAR CYOW 141600Z 16008KT 080V180 15SM SCT033TCU BKN070 BKN120 23/18 A2971 RMK TCU4AC1AC1 SLP061 DENSITY ALT 1700FT=
METAR CYOW 141500Z 15004KT 110V200 15SM SCT030 BKN080 BKN110 21/17 A2971 RMK CU3AC2AC2 SLP063 DENSITY ALT 1400FT=

TAF CYOW 141740Z 1418/1518 17008KT P6SM -SHRA BKN030 OVC060 TEMPO
1418/1420 VRB15G25KT 11/2SM +TSRA BR BKN015 OVC040CB
FM142000 22006KT P6SM BKN060 TEMPO 1420/1424 5SM -SHRA BR BKN020
BKN060 PROB30 1420/1424 VRB15G25KT 11/2SM +TSRA BR BKN015
BKN040CB
FM150000 24006KT P6SM BKN015 OVC025 TEMPO 1500/1506 5SM -SHRA BR
BKN008 OVC015 PROB30 1500/1502 21/2SM -TSRA BR BKN006 OVC020CB
FM150600 VRB03KT P6SM -SHRA BKN004 OVC012
FM151300 32008KT P6SM -SHRA BKN015 OVC030
FM151600 32010G20KT P6SM BKN040
RMK NXT FCST BY 142100Z=

OTTAWA/GATINEAU/QC    

METAR CYND 141700Z 11008KT 15SM SCT035TCU BKN057 BKN150 BKN240 25/16 A2969 RMK TCU4SC1AC1CI1 AC TR CI TR TCU ALQDS SLP054 DENSITY AL
T 1700FT=
METAR CYND 141600Z 14008KT 100V180 15SM BKN020 BKN120 24/17 A2971 RMK CU5AC2 SLP062 DENSITY ALT 1600FT=
METAR CYND 141500Z 13009KT 100V160 15SM SCT021 BKN047 BKN120 22/17 A2971 RMK CU4SC1AC1 SLP061 DENSITY ALT 1400FT=

TAF CYND 141740Z 1418/1501 12008KT P6SM -SHRA BKN030 OVC060 TEMPO
1418/1420 VRB15G25KT 11/2SM +TSRA BR BKN015 OVC040CB
FM142000 22006KT P6SM BKN060 TEMPO 1420/1501 5SM -SHRA BR BKN020
BKN060 PROB30 1420/1501 VRB15G25KT 11/2SM +TSRA BR BKN015
BKN040CB
RMK NXT FCST WILL BE ISSUED AT 151245Z=


GRAPHICAL FA CLOUDS & WEATHER FORECASTS
To the Product Selector
Graphical FA gfacn33      

GRAPHICAL FA ICING, TURBULENCE & FREEZING LEVEL FORECASTS
To the Product Selector
Graphical FA gfacn33      

Your time UTC time
Weather data provided by Environment Canada and NAV CANADA